sensor_id;sensor_type;location;lat;lon;timestamp;temperature;humidity
26326;DHT22;14032;52.510;7.342;2023-05-23T00:00:58;15.10;99.90
26326;DHT22;14032;52.510;7.342;2023-05-23T00:03:25;15.10;99.90
26326;DHT22;14032;52.510;7.342;2023-05-23T00:05:51;15.10;99.90
26326;DHT22;14032;52.510;7.342;2023-05-23T00:08:17;15.10;99.90
26326;DHT22;14032;52.510;7.342;2023-05-23T00:10:43;15.00;99.90
26326;DHT22;14032;52.510;7.342;2023-05-23T00:13:09;15.00;99.90
26326;DHT22;14032;52.510;7.342;2023-05-23T00:15:37;15.00;99.90
26326;DHT22;14032;52.510;7.342;2023-05-23T00:18:03;14.90;99.90
26326;DHT22;14032;52.510;7.342;2023-05-23T00:20:29;14.90;99.90
26326;DHT22;14032;52.510;7.342;2023-05-23T00:22:55;14.90;99.90
26326;DHT22;14032;52.510;7.342;2023-05-23T00:25:24;14.90;99.90
26326;DHT22;14032;52.510;7.342;2023-05-23T00:27:50;14.90;99.90
26326;DHT22;14032;52.510;7.342;2023-05-23T00:30:16;15.00;99.90
26326;DHT22;14032;52.510;7.342;2023-05-23T00:32:41;14.90;99.90
26326;DHT22;14032;52.510;7.342;2023-05-23T00:35:07;14.90;99.90
26326;DHT22;14032;52.510;7.342;2023-05-23T00:37:33;14.90;99.90
26326;DHT22;14032;52.510;7.342;2023-05-23T00:39:59;14.90;99.90
26326;DHT22;14032;52.510;7.342;2023-05-23T00:42:24;14.80;99.90
26326;DHT22;14032;52.510;7.342;2023-05-23T00:44:50;14.70;99.90
26326;DHT22;14032;52.510;7.342;2023-05-23T00:47:16;14.80;99.90
26326;DHT22;14032;52.510;7.342;2023-05-23T00:49:42;14.70;99.90
26326;DHT22;14032;52.510;7.342;2023-05-23T00:52:09;14.80;99.90
26326;DHT22;14032;52.510;7.342;2023-05-23T00:54:35;14.80;99.90
26326;DHT22;14032;52.510;7.342;2023-05-23T00:57:01;14.80;99.90
26326;DHT22;14032;52.510;7.342;2023-05-23T00:59:27;14.80;99.90
26326;DHT22;14032;52.510;7.342;2023-05-23T01:01:55;14.80;99.90
26326;DHT22;14032;52.510;7.342;2023-05-23T01:04:21;14.70;99.90
26326;DHT22;14032;52.510;7.342;2023-05-23T01:06:52;14.70;99.90
26326;DHT22;14032;52.510;7.342;2023-05-23T01:09:18;14.70;99.90
26326;DHT22;14032;52.510;7.342;2023-05-23T01:14:44;14.70;99.90
26326;DHT22;14032;52.510;7.342;2023-05-23T01:17:16;14.60;99.90
26326;DHT22;14032;52.510;7.342;2023-05-23T01:19:54;14.60;99.90
26326;DHT22;14032;52.510;7.342;2023-05-23T01:25:36;14.60;99.90
26326;DHT22;14032;52.510;7.342;2023-05-23T01:28:10;14.60;99.90
26326;DHT22;14032;52.510;7.342;2023-05-23T01:30:39;14.50;99.90
26326;DHT22;14032;52.510;7.342;2023-05-23T01:33:06;14.50;99.90
26326;DHT22;14032;52.510;7.342;2023-05-23T01:35:32;14.40;99.90
26326;DHT22;14032;52.510;7.342;2023-05-23T01:37:59;14.40;99.90
26326;DHT22;14032;52.510;7.342;2023-05-23T01:40:24;14.40;99.90
26326;DHT22;14032;52.510;7.342;2023-05-23T01:42:51;14.30;99.90
26326;DHT22;14032;52.510;7.342;2023-05-23T01:45:18;14.30;99.90
26326;DHT22;14032;52.510;7.342;2023-05-23T01:47:46;14.30;99.90
26326;DHT22;14032;52.510;7.342;2023-05-23T01:50:13;14.30;99.90
26326;DHT22;14032;52.510;7.342;2023-05-23T01:52:40;14.30;99.90
26326;DHT22;14032;52.510;7.342;2023-05-23T01:55:06;14.30;99.90
26326;DHT22;14032;52.510;7.342;2023-05-23T01:57:35;14.20;99.90
26326;DHT22;14032;52.510;7.342;2023-05-23T02:00:01;14.20;99.90
26326;DHT22;14032;52.510;7.342;2023-05-23T02:02:27;14.10;99.90
26326;DHT22;14032;52.510;7.342;2023-05-23T02:04:52;14.20;99.90
26326;DHT22;14032;52.510;7.342;2023-05-23T02:07:18;14.20;99.90
26326;DHT22;14032;52.510;7.342;2023-05-23T02:09:48;14.20;99.90
26326;DHT22;14032;52.510;7.342;2023-05-23T02:12:13;14.20;99.90
26326;DHT22;14032;52.510;7.342;2023-05-23T02:14:39;14.10;99.90
26326;DHT22;14032;52.510;7.342;2023-05-23T02:17:07;14.10;99.90
26326;DHT22;14032;52.510;7.342;2023-05-23T02:19:34;14.10;99.90
26326;DHT22;14032;52.510;7.342;2023-05-23T02:22:00;14.10;99.90
26326;DHT22;14032;52.510;7.342;2023-05-23T02:24:26;14.10;99.90
26326;DHT22;14032;52.510;7.342;2023-05-23T02:26:51;14.10;99.90
26326;DHT22;14032;52.510;7.342;2023-05-23T02:29:17;14.10;99.90
26326;DHT22;14032;52.510;7.342;2023-05-23T02:31:43;14.10;99.90
26326;DHT22;14032;52.510;7.342;2023-05-23T02:34:08;14.10;99.90
26326;DHT22;14032;52.510;7.342;2023-05-23T02:36:34;14.10;99.90
26326;DHT22;14032;52.510;7.342;2023-05-23T02:39:02;14.10;99.90
26326;DHT22;14032;52.510;7.342;2023-05-23T02:41:28;14.10;99.90
26326;DHT22;14032;52.510;7.342;2023-05-23T02:43:53;14.20;99.90
26326;DHT22;14032;52.510;7.342;2023-05-23T02:46:19;14.10;99.90
26326;DHT22;14032;52.510;7.342;2023-05-23T02:48:44;14.10;99.90
26326;DHT22;14032;52.510;7.342;2023-05-23T02:51:10;14.10;99.90
26326;DHT22;14032;52.510;7.342;2023-05-23T02:53:38;14.10;99.90
26326;DHT22;14032;52.510;7.342;2023-05-23T02:56:04;14.10;99.90
26326;DHT22;14032;52.510;7.342;2023-05-23T02:58:30;14.10;99.90
26326;DHT22;14032;52.510;7.342;2023-05-23T03:00:56;14.10;99.90
26326;DHT22;14032;52.510;7.342;2023-05-23T03:03:22;14.10;99.90
26326;DHT22;14032;52.510;7.342;2023-05-23T03:05:48;14.10;99.90
26326;DHT22;14032;52.510;7.342;2023-05-23T03:08:14;14.10;99.90
26326;DHT22;14032;52.510;7.342;2023-05-23T03:41:44;13.80;99.90
26326;DHT22;14032;52.510;7.342;2023-05-23T03:44:10;13.80;99.90
26326;DHT22;14032;52.510;7.342;2023-05-23T04:41:01;13.00;99.90
26326;DHT22;14032;52.510;7.342;2023-05-23T04:46:01;13.00;99.90
26326;DHT22;14032;52.510;7.342;2023-05-23T05:18:13;12.80;99.90
26326;DHT22;14032;52.510;7.342;2023-05-23T06:02:05;12.30;99.90
26326;DHT22;14032;52.510;7.342;2023-05-23T06:04:32;12.30;99.90
26326;DHT22;14032;52.510;7.342;2023-05-23T06:06:58;12.30;99.90
26326;DHT22;14032;52.510;7.342;2023-05-23T06:09:23;12.20;99.90
26326;DHT22;14032;52.510;7.342;2023-05-23T06:11:49;12.20;99.90
26326;DHT22;14032;52.510;7.342;2023-05-23T06:14:14;12.20;99.90
26326;DHT22;14032;52.510;7.342;2023-05-23T06:16:40;12.20;99.90
26326;DHT22;14032;52.510;7.342;2023-05-23T06:19:06;12.20;99.90
26326;DHT22;14032;52.510;7.342;2023-05-23T06:21:32;12.20;99.90
26326;DHT22;14032;52.510;7.342;2023-05-23T06:23:58;12.20;99.90
26326;DHT22;14032;52.510;7.342;2023-05-23T06:26:23;12.10;99.90
26326;DHT22;14032;52.510;7.342;2023-05-23T06:28:49;12.10;99.90
26326;DHT22;14032;52.510;7.342;2023-05-23T06:31:14;12.10;99.90
26326;DHT22;14032;52.510;7.342;2023-05-23T06:33:40;12.10;99.90
26326;DHT22;14032;52.510;7.342;2023-05-23T06:36:07;12.10;99.90
26326;DHT22;14032;52.510;7.342;2023-05-23T06:38:32;12.10;99.90
26326;DHT22;14032;52.510;7.342;2023-05-23T06:40:58;12.10;99.90
26326;DHT22;14032;52.510;7.342;2023-05-23T06:43:24;12.10;99.90
26326;DHT22;14032;52.510;7.342;2023-05-23T06:45:50;12.00;99.90
26326;DHT22;14032;52.510;7.342;2023-05-23T06:48:16;12.00;99.90
26326;DHT22;14032;52.510;7.342;2023-05-23T06:50:42;12.00;99.90
26326;DHT22;14032;52.510;7.342;2023-05-23T06:53:13;12.00;99.90
26326;DHT22;14032;52.510;7.342;2023-05-23T06:55:40;12.00;99.90
26326;DHT22;14032;52.510;7.342;2023-05-23T06:58:06;11.90;99.90
26326;DHT22;14032;52.510;7.342;2023-05-23T07:00:32;12.00;99.90
26326;DHT22;14032;52.510;7.342;2023-05-23T07:02:57;11.90;99.90
26326;DHT22;14032;52.510;7.342;2023-05-23T07:05:27;11.90;99.90
26326;DHT22;14032;52.510;7.342;2023-05-23T07:07:53;11.80;99.90
26326;DHT22;14032;52.510;7.342;2023-05-23T07:10:24;11.80;99.90
26326;DHT22;14032;52.510;7.342;2023-05-23T07:12:50;11.80;99.90
26326;DHT22;14032;52.510;7.342;2023-05-23T07:15:16;11.70;99.90
26326;DHT22;14032;52.510;7.342;2023-05-23T07:17:42;11.70;99.90
26326;DHT22;14032;52.510;7.342;2023-05-23T07:20:08;11.70;99.90
26326;DHT22;14032;52.510;7.342;2023-05-23T07:22:33;11.70;99.90
26326;DHT22;14032;52.510;7.342;2023-05-23T07:24:59;11.70;99.90
26326;DHT22;14032;52.510;7.342;2023-05-23T07:27:25;11.70;99.90
26326;DHT22;14032;52.510;7.342;2023-05-23T07:29:51;11.60;99.90
26326;DHT22;14032;52.510;7.342;2023-05-23T07:32:17;11.60;99.90
26326;DHT22;14032;52.510;7.342;2023-05-23T07:34:42;11.60;99.90
26326;DHT22;14032;52.510;7.342;2023-05-23T07:37:08;11.50;99.90
26326;DHT22;14032;52.510;7.342;2023-05-23T07:39:34;11.60;99.90
26326;DHT22;14032;52.510;7.342;2023-05-23T07:41:59;11.50;99.90
26326;DHT22;14032;52.510;7.342;2023-05-23T07:44:25;11.50;99.90
26326;DHT22;14032;52.510;7.342;2023-05-23T07:46:50;11.50;99.90
26326;DHT22;14032;52.510;7.342;2023-05-23T07:49:16;11.50;99.90
26326;DHT22;14032;52.510;7.342;2023-05-23T07:51:41;11.40;99.90
26326;DHT22;14032;52.510;7.342;2023-05-23T07:54:08;11.40;99.90
26326;DHT22;14032;52.510;7.342;2023-05-23T07:56:33;11.40;99.90
26326;DHT22;14032;52.510;7.342;2023-05-23T07:58:59;11.40;99.90
26326;DHT22;14032;52.510;7.342;2023-05-23T08:01:25;11.40;99.90
26326;DHT22;14032;52.510;7.342;2023-05-23T08:03:50;11.40;99.90
26326;DHT22;14032;52.510;7.342;2023-05-23T08:06:16;11.40;99.90
26326;DHT22;14032;52.510;7.342;2023-05-23T08:08:42;11.40;99.90
26326;DHT22;14032;52.510;7.342;2023-05-23T08:11:08;11.40;99.90
26326;DHT22;14032;52.510;7.342;2023-05-23T08:13:34;11.40;99.90
26326;DHT22;14032;52.510;7.342;2023-05-23T08:16:00;11.50;99.90
26326;DHT22;14032;52.510;7.342;2023-05-23T08:18:25;11.50;99.90
26326;DHT22;14032;52.510;7.342;2023-05-23T08:20:52;11.60;99.90
26326;DHT22;14032;52.510;7.342;2023-05-23T08:23:18;11.50;99.90
26326;DHT22;14032;52.510;7.342;2023-05-23T08:25:43;11.60;99.90
26326;DHT22;14032;52.510;7.342;2023-05-23T08:28:09;11.60;99.90
26326;DHT22;14032;52.510;7.342;2023-05-23T08:30:35;11.60;99.90
26326;DHT22;14032;52.510;7.342;2023-05-23T08:33:01;11.80;99.90
26326;DHT22;14032;52.510;7.342;2023-05-23T08:35:29;11.90;99.90
26326;DHT22;14032;52.510;7.342;2023-05-23T08:37:59;12.00;99.90
26326;DHT22;14032;52.510;7.342;2023-05-23T08:40:26;12.10;99.90
26326;DHT22;14032;52.510;7.342;2023-05-23T08:42:54;12.00;99.90
26326;DHT22;14032;52.510;7.342;2023-05-23T08:45:19;12.00;99.90
26326;DHT22;14032;52.510;7.342;2023-05-23T08:47:50;11.90;99.90
26326;DHT22;14032;52.510;7.342;2023-05-23T08:50:17;12.00;99.90
26326;DHT22;14032;52.510;7.342;2023-05-23T08:53:03;12.00;99.90
26326;DHT22;14032;52.510;7.342;2023-05-23T08:55:29;12.10;99.90
26326;DHT22;14032;52.510;7.342;2023-05-23T08:57:56;12.10;99.90
26326;DHT22;14032;52.510;7.342;2023-05-23T09:00:22;12.20;99.90
26326;DHT22;14032;52.510;7.342;2023-05-23T09:02:49;12.20;99.90
26326;DHT22;14032;52.510;7.342;2023-05-23T09:05:16;12.30;99.90
26326;DHT22;14032;52.510;7.342;2023-05-23T09:07:43;12.40;99.90
26326;DHT22;14032;52.510;7.342;2023-05-23T09:10:09;12.40;99.90
26326;DHT22;14032;52.510;7.342;2023-05-23T09:12:35;12.50;99.90
26326;DHT22;14032;52.510;7.342;2023-05-23T09:15:03;12.50;99.90
26326;DHT22;14032;52.510;7.342;2023-05-23T09:17:30;12.60;99.90
26326;DHT22;14032;52.510;7.342;2023-05-23T09:19:58;12.50;99.90
26326;DHT22;14032;52.510;7.342;2023-05-23T09:22:24;12.50;99.90
26326;DHT22;14032;52.510;7.342;2023-05-23T09:24:51;12.50;99.90
26326;DHT22;14032;52.510;7.342;2023-05-23T09:27:17;12.50;99.90
26326;DHT22;14032;52.510;7.342;2023-05-23T09:29:43;12.50;99.90
26326;DHT22;14032;52.510;7.342;2023-05-23T09:32:16;12.50;99.90
26326;DHT22;14032;52.510;7.342;2023-05-23T09:34:56;12.60;99.90
26326;DHT22;14032;52.510;7.342;2023-05-23T09:40:04;12.80;99.90
26326;DHT22;14032;52.510;7.342;2023-05-23T09:42:32;12.90;99.90
26326;DHT22;14032;52.510;7.342;2023-05-23T09:45:01;12.90;99.90
26326;DHT22;14032;52.510;7.342;2023-05-23T09:47:27;12.90;99.90
26326;DHT22;14032;52.510;7.342;2023-05-23T09:49:52;12.90;99.90
26326;DHT22;14032;52.510;7.342;2023-05-23T09:52:18;13.00;99.90
26326;DHT22;14032;52.510;7.342;2023-05-23T09:54:47;13.10;99.90
26326;DHT22;14032;52.510;7.342;2023-05-23T09:57:14;13.30;99.90
26326;DHT22;14032;52.510;7.342;2023-05-23T09:59:41;13.60;99.90
26326;DHT22;14032;52.510;7.342;2023-05-23T10:02:15;13.90;99.90
26326;DHT22;14032;52.510;7.342;2023-05-23T10:04:42;14.30;99.90
26326;DHT22;14032;52.510;7.342;2023-05-23T10:09:39;14.30;99.90
26326;DHT22;14032;52.510;7.342;2023-05-23T10:15:02;14.20;99.90
26326;DHT22;14032;52.510;7.342;2023-05-23T10:20:38;14.30;99.90
26326;DHT22;14032;52.510;7.342;2023-05-23T10:23:05;14.50;99.90
26326;DHT22;14032;52.510;7.342;2023-05-23T10:25:31;14.60;99.90
26326;DHT22;14032;52.510;7.342;2023-05-23T10:27:58;14.80;99.90
26326;DHT22;14032;52.510;7.342;2023-05-23T10:30:25;15.00;99.90
26326;DHT22;14032;52.510;7.342;2023-05-23T10:32:51;14.90;99.90
26326;DHT22;14032;52.510;7.342;2023-05-23T10:38:21;14.80;99.90
26326;DHT22;14032;52.510;7.342;2023-05-23T10:41:08;14.70;99.90
26326;DHT22;14032;52.510;7.342;2023-05-23T10:43:59;14.70;99.90
26326;DHT22;14032;52.510;7.342;2023-05-23T10:49:20;15.00;99.90
26326;DHT22;14032;52.510;7.342;2023-05-23T10:51:50;15.00;99.90
26326;DHT22;14032;52.510;7.342;2023-05-23T10:54:19;14.90;99.90
26326;DHT22;14032;52.510;7.342;2023-05-23T10:56:45;14.90;99.90
26326;DHT22;14032;52.510;7.342;2023-05-23T10:59:20;14.70;99.90
26326;DHT22;14032;52.510;7.342;2023-05-23T11:01:51;14.70;99.90
26326;DHT22;14032;52.510;7.342;2023-05-23T11:04:24;14.60;99.90
26326;DHT22;14032;52.510;7.342;2023-05-23T11:06:55;14.70;99.90
26326;DHT22;14032;52.510;7.342;2023-05-23T11:09:21;14.80;99.90
26326;DHT22;14032;52.510;7.342;2023-05-23T11:17:31;15.00;99.90
26326;DHT22;14032;52.510;7.342;2023-05-23T11:20:05;15.00;99.90
26326;DHT22;14032;52.510;7.342;2023-05-23T11:22:32;15.00;99.90
26326;DHT22;14032;52.510;7.342;2023-05-23T11:24:59;15.10;99.90
26326;DHT22;14032;52.510;7.342;2023-05-23T11:27:45;15.10;99.90
26326;DHT22;14032;52.510;7.342;2023-05-23T11:30:14;15.00;99.90
26326;DHT22;14032;52.510;7.342;2023-05-23T11:32:41;14.90;99.90
26326;DHT22;14032;52.510;7.342;2023-05-23T11:35:10;14.80;99.90
26326;DHT22;14032;52.510;7.342;2023-05-23T11:37:39;14.80;99.90
26326;DHT22;14032;52.510;7.342;2023-05-23T11:40:30;14.90;99.90
26326;DHT22;14032;52.510;7.342;2023-05-23T11:42:57;15.10;99.90
26326;DHT22;14032;52.510;7.342;2023-05-23T11:45:23;15.20;99.90
26326;DHT22;14032;52.510;7.342;2023-05-23T11:47:48;15.20;99.90
26326;DHT22;14032;52.510;7.342;2023-05-23T11:50:14;15.20;99.90
26326;DHT22;14032;52.510;7.342;2023-05-23T11:52:40;15.20;99.90
26326;DHT22;14032;52.510;7.342;2023-05-23T11:55:07;15.20;99.90
26326;DHT22;14032;52.510;7.342;2023-05-23T11:57:36;15.30;99.90
26326;DHT22;14032;52.510;7.342;2023-05-23T12:00:02;15.50;99.90
26326;DHT22;14032;52.510;7.342;2023-05-23T12:02:29;15.50;99.90
26326;DHT22;14032;52.510;7.342;2023-05-23T12:04:55;15.50;99.90
26326;DHT22;14032;52.510;7.342;2023-05-23T12:07:20;15.40;99.90
26326;DHT22;14032;52.510;7.342;2023-05-23T12:09:46;15.30;99.90
26326;DHT22;14032;52.510;7.342;2023-05-23T12:12:13;15.30;99.90
26326;DHT22;14032;52.510;7.342;2023-05-23T12:14:39;15.20;99.90
26326;DHT22;14032;52.510;7.342;2023-05-23T12:17:12;15.20;99.90
26326;DHT22;14032;52.510;7.342;2023-05-23T12:19:38;15.30;99.90
26326;DHT22;14032;52.510;7.342;2023-05-23T12:22:07;15.40;99.90
26326;DHT22;14032;52.510;7.342;2023-05-23T12:24:33;15.40;99.90
26326;DHT22;14032;52.510;7.342;2023-05-23T12:27:00;15.40;99.90
26326;DHT22;14032;52.510;7.342;2023-05-23T12:29:31;15.30;99.90
26326;DHT22;14032;52.510;7.342;2023-05-23T12:32:01;15.30;99.90
26326;DHT22;14032;52.510;7.342;2023-05-23T12:34:27;15.20;99.90
26326;DHT22;14032;52.510;7.342;2023-05-23T12:36:57;15.10;99.90
26326;DHT22;14032;52.510;7.342;2023-05-23T12:39:24;15.00;99.90
26326;DHT22;14032;52.510;7.342;2023-05-23T12:41:51;14.90;99.90
26326;DHT22;14032;52.510;7.342;2023-05-23T12:44:17;14.90;99.90
26326;DHT22;14032;52.510;7.342;2023-05-23T12:46:42;14.80;99.90
26326;DHT22;14032;52.510;7.342;2023-05-23T12:49:09;14.80;99.90
26326;DHT22;14032;52.510;7.342;2023-05-23T12:51:35;14.90;99.90
26326;DHT22;14032;52.510;7.342;2023-05-23T12:54:01;14.90;99.90
26326;DHT22;14032;52.510;7.342;2023-05-23T12:56:26;14.90;99.90
26326;DHT22;14032;52.510;7.342;2023-05-23T12:58:52;14.80;99.90
26326;DHT22;14032;52.510;7.342;2023-05-23T13:01:19;14.70;99.90
26326;DHT22;14032;52.510;7.342;2023-05-23T13:03:44;14.70;99.90
26326;DHT22;14032;52.510;7.342;2023-05-23T13:06:10;14.70;99.90
26326;DHT22;14032;52.510;7.342;2023-05-23T13:08:36;14.70;99.90
26326;DHT22;14032;52.510;7.342;2023-05-23T13:11:01;14.80;99.90
26326;DHT22;14032;52.510;7.342;2023-05-23T13:13:27;14.70;99.90
26326;DHT22;14032;52.510;7.342;2023-05-23T13:15:53;14.80;99.90
26326;DHT22;14032;52.510;7.342;2023-05-23T13:18:19;14.80;99.90
26326;DHT22;14032;52.510;7.342;2023-05-23T13:20:46;14.90;99.90
26326;DHT22;14032;52.510;7.342;2023-05-23T13:23:11;14.90;99.90
26326;DHT22;14032;52.510;7.342;2023-05-23T13:25:37;14.90;99.90
26326;DHT22;14032;52.510;7.342;2023-05-23T13:28:03;14.90;99.90
26326;DHT22;14032;52.510;7.342;2023-05-23T13:30:29;14.90;99.90
26326;DHT22;14032;52.510;7.342;2023-05-23T13:32:54;14.70;99.90
26326;DHT22;14032;52.510;7.342;2023-05-23T13:35:20;14.50;99.90
26326;DHT22;14032;52.510;7.342;2023-05-23T13:37:46;14.50;99.90
26326;DHT22;14032;52.510;7.342;2023-05-23T13:40:15;14.60;99.90
26326;DHT22;14032;52.510;7.342;2023-05-23T13:42:42;14.70;99.90
26326;DHT22;14032;52.510;7.342;2023-05-23T13:45:08;14.70;99.90
26326;DHT22;14032;52.510;7.342;2023-05-23T13:47:34;14.60;99.90
26326;DHT22;14032;52.510;7.342;2023-05-23T13:50:02;14.60;99.90
26326;DHT22;14032;52.510;7.342;2023-05-23T13:52:28;14.60;99.90
26326;DHT22;14032;52.510;7.342;2023-05-23T13:54:53;14.60;99.90
26326;DHT22;14032;52.510;7.342;2023-05-23T13:57:19;14.50;99.90
26326;DHT22;14032;52.510;7.342;2023-05-23T13:59:44;14.60;99.90
26326;DHT22;14032;52.510;7.342;2023-05-23T14:02:10;14.70;99.90
26326;DHT22;14032;52.510;7.342;2023-05-23T14:04:36;14.80;99.90
26326;DHT22;14032;52.510;7.342;2023-05-23T14:07:02;14.80;98.80
26326;DHT22;14032;52.510;7.342;2023-05-23T14:09:28;14.90;97.90
26326;DHT22;14032;52.510;7.342;2023-05-23T14:11:53;14.90;98.30
26326;DHT22;14032;52.510;7.342;2023-05-23T14:14:19;14.90;98.40
26326;DHT22;14032;52.510;7.342;2023-05-23T14:16:45;14.90;99.20
26326;DHT22;14032;52.510;7.342;2023-05-23T14:19:11;14.90;98.90
26326;DHT22;14032;52.510;7.342;2023-05-23T14:21:36;14.90;98.90
26326;DHT22;14032;52.510;7.342;2023-05-23T14:24:03;15.00;96.80
26326;DHT22;14032;52.510;7.342;2023-05-23T14:26:28;15.10;97.20
26326;DHT22;14032;52.510;7.342;2023-05-23T14:28:54;15.10;98.10
26326;DHT22;14032;52.510;7.342;2023-05-23T14:31:20;15.10;97.70
26326;DHT22;14032;52.510;7.342;2023-05-23T14:33:46;15.10;97.30
26326;DHT22;14032;52.510;7.342;2023-05-23T14:36:12;15.10;97.10
26326;DHT22;14032;52.510;7.342;2023-05-23T14:38:37;15.10;96.90
26326;DHT22;14032;52.510;7.342;2023-05-23T14:41:04;15.00;97.60
26326;DHT22;14032;52.510;7.342;2023-05-23T14:43:29;15.00;98.80
26326;DHT22;14032;52.510;7.342;2023-05-23T14:45:55;15.00;99.90
26326;DHT22;14032;52.510;7.342;2023-05-23T14:48:21;15.00;99.90
26326;DHT22;14032;52.510;7.342;2023-05-23T14:50:46;15.10;99.90
26326;DHT22;14032;52.510;7.342;2023-05-23T14:53:12;14.90;99.20
26326;DHT22;14032;52.510;7.342;2023-05-23T14:55:38;14.90;99.60
26326;DHT22;14032;52.510;7.342;2023-05-23T14:58:06;14.90;99.90
26326;DHT22;14032;52.510;7.342;2023-05-23T15:00:32;15.00;99.90
26326;DHT22;14032;52.510;7.342;2023-05-23T15:03:00;15.00;99.90
26326;DHT22;14032;52.510;7.342;2023-05-23T15:05:26;15.10;98.90
26326;DHT22;14032;52.510;7.342;2023-05-23T15:07:51;14.90;99.20
26326;DHT22;14032;52.510;7.342;2023-05-23T15:10:17;14.90;99.70
26326;DHT22;14032;52.510;7.342;2023-05-23T15:12:43;15.00;99.30
26326;DHT22;14032;52.510;7.342;2023-05-23T15:15:09;14.90;99.10
26326;DHT22;14032;52.510;7.342;2023-05-23T15:17:35;14.90;99.60
26326;DHT22;14032;52.510;7.342;2023-05-23T15:20:00;14.90;98.20
26326;DHT22;14032;52.510;7.342;2023-05-23T15:22:26;14.80;98.00
26326;DHT22;14032;52.510;7.342;2023-05-23T15:24:51;14.90;98.00
26326;DHT22;14032;52.510;7.342;2023-05-23T15:27:17;15.00;97.60
26326;DHT22;14032;52.510;7.342;2023-05-23T15:29:44;15.10;97.10
26326;DHT22;14032;52.510;7.342;2023-05-23T15:32:10;15.20;95.60
26326;DHT22;14032;52.510;7.342;2023-05-23T15:34:35;15.30;96.20
26326;DHT22;14032;52.510;7.342;2023-05-23T15:37:01;15.20;95.50
26326;DHT22;14032;52.510;7.342;2023-05-23T15:39:27;15.10;95.90
26326;DHT22;14032;52.510;7.342;2023-05-23T15:41:52;15.10;96.50
26326;DHT22;14032;52.510;7.342;2023-05-23T15:44:18;15.10;97.00
26326;DHT22;14032;52.510;7.342;2023-05-23T15:46:47;15.20;96.60
26326;DHT22;14032;52.510;7.342;2023-05-23T15:49:13;15.20;95.40
26326;DHT22;14032;52.510;7.342;2023-05-23T15:51:38;15.20;94.70
26326;DHT22;14032;52.510;7.342;2023-05-23T15:54:10;15.20;94.60
26326;DHT22;14032;52.510;7.342;2023-05-23T15:59:10;15.10;94.20
26326;DHT22;14032;52.510;7.342;2023-05-23T16:01:36;14.90;93.80
26326;DHT22;14032;52.510;7.342;2023-05-23T16:04:01;14.90;93.50
26326;DHT22;14032;52.510;7.342;2023-05-23T16:06:27;14.90;94.40
26326;DHT22;14032;52.510;7.342;2023-05-23T16:08:53;14.90;94.60
26326;DHT22;14032;52.510;7.342;2023-05-23T16:11:25;14.90;94.90
26326;DHT22;14032;52.510;7.342;2023-05-23T16:13:51;14.90;94.70
26326;DHT22;14032;52.510;7.342;2023-05-23T16:16:20;14.90;94.10
26326;DHT22;14032;52.510;7.342;2023-05-23T16:18:46;14.90;93.70
26326;DHT22;14032;52.510;7.342;2023-05-23T16:21:11;14.90;94.50
26326;DHT22;14032;52.510;7.342;2023-05-23T16:23:37;14.90;94.20
26326;DHT22;14032;52.510;7.342;2023-05-23T16:26:03;14.80;94.90
26326;DHT22;14032;52.510;7.342;2023-05-23T16:28:28;14.80;95.60
26326;DHT22;14032;52.510;7.342;2023-05-23T16:30:54;14.80;96.40
26326;DHT22;14032;52.510;7.342;2023-05-23T16:33:20;14.60;96.10
26326;DHT22;14032;52.510;7.342;2023-05-23T16:35:46;14.50;96.60
26326;DHT22;14032;52.510;7.342;2023-05-23T16:38:11;14.50;96.70
26326;DHT22;14032;52.510;7.342;2023-05-23T16:40:37;14.40;94.20
26326;DHT22;14032;52.510;7.342;2023-05-23T16:43:03;14.40;94.90
26326;DHT22;14032;52.510;7.342;2023-05-23T16:45:29;14.30;93.80
26326;DHT22;14032;52.510;7.342;2023-05-23T16:47:54;14.30;93.90
26326;DHT22;14032;52.510;7.342;2023-05-23T16:50:20;14.30;94.10
26326;DHT22;14032;52.510;7.342;2023-05-23T16:52:45;14.40;94.90
26326;DHT22;14032;52.510;7.342;2023-05-23T16:55:12;14.30;94.50
26326;DHT22;14032;52.510;7.342;2023-05-23T16:57:38;14.30;94.40
26326;DHT22;14032;52.510;7.342;2023-05-23T17:00:04;14.20;93.00
26326;DHT22;14032;52.510;7.342;2023-05-23T17:02:30;14.10;92.50
26326;DHT22;14032;52.510;7.342;2023-05-23T17:04:55;14.10;93.20
26326;DHT22;14032;52.510;7.342;2023-05-23T17:07:21;14.00;93.70
26326;DHT22;14032;52.510;7.342;2023-05-23T17:09:47;14.00;93.80
26326;DHT22;14032;52.510;7.342;2023-05-23T17:12:12;14.00;94.20
26326;DHT22;14032;52.510;7.342;2023-05-23T17:14:38;13.90;94.80
26326;DHT22;14032;52.510;7.342;2023-05-23T17:17:03;13.90;95.60
26326;DHT22;14032;52.510;7.342;2023-05-23T17:19:29;13.90;95.30
26326;DHT22;14032;52.510;7.342;2023-05-23T17:21:55;13.90;95.60
26326;DHT22;14032;52.510;7.342;2023-05-23T17:24:23;13.90;96.00
26326;DHT22;14032;52.510;7.342;2023-05-23T17:26:49;13.90;95.60
26326;DHT22;14032;52.510;7.342;2023-05-23T17:29:14;13.90;95.60
26326;DHT22;14032;52.510;7.342;2023-05-23T17:31:42;13.90;96.10
26326;DHT22;14032;52.510;7.342;2023-05-23T17:34:07;13.80;94.10
26326;DHT22;14032;52.510;7.342;2023-05-23T17:36:33;13.80;93.00
26326;DHT22;14032;52.510;7.342;2023-05-23T17:38:59;13.80;92.90
26326;DHT22;14032;52.510;7.342;2023-05-23T17:41:25;13.70;93.20
26326;DHT22;14032;52.510;7.342;2023-05-23T17:43:51;13.60;93.40
26326;DHT22;14032;52.510;7.342;2023-05-23T17:46:17;13.60;93.60
26326;DHT22;14032;52.510;7.342;2023-05-23T17:48:42;13.50;94.50
26326;DHT22;14032;52.510;7.342;2023-05-23T17:51:08;13.40;94.70
26326;DHT22;14032;52.510;7.342;2023-05-23T17:53:33;13.30;95.10
26326;DHT22;14032;52.510;7.342;2023-05-23T17:56:04;13.30;94.90
26326;DHT22;14032;52.510;7.342;2023-05-23T17:58:30;13.20;94.40
26326;DHT22;14032;52.510;7.342;2023-05-23T18:00:56;13.10;94.00
26326;DHT22;14032;52.510;7.342;2023-05-23T18:03:21;13.10;94.00
26326;DHT22;14032;52.510;7.342;2023-05-23T18:05:48;13.10;94.40
26326;DHT22;14032;52.510;7.342;2023-05-23T18:08:14;13.10;95.40
26326;DHT22;14032;52.510;7.342;2023-05-23T18:10:39;13.10;95.30
26326;DHT22;14032;52.510;7.342;2023-05-23T18:13:14;13.10;94.80
26326;DHT22;14032;52.510;7.342;2023-05-23T18:15:40;13.00;95.30
26326;DHT22;14032;52.510;7.342;2023-05-23T18:18:07;13.00;96.90
26326;DHT22;14032;52.510;7.342;2023-05-23T18:20:33;13.00;96.80
26326;DHT22;14032;52.510;7.342;2023-05-23T18:22:58;12.90;96.30
26326;DHT22;14032;52.510;7.342;2023-05-23T18:25:24;12.90;96.20
26326;DHT22;14032;52.510;7.342;2023-05-23T18:27:57;12.90;96.00
26326;DHT22;14032;52.510;7.342;2023-05-23T18:30:24;12.70;95.80
26326;DHT22;14032;52.510;7.342;2023-05-23T18:32:50;12.60;96.00
26326;DHT22;14032;52.510;7.342;2023-05-23T18:35:16;12.60;96.80
26326;DHT22;14032;52.510;7.342;2023-05-23T18:37:42;12.60;97.50